Time;durP1;ratioP1;P1;durP2;ratioP2;P2;SDS_P1;SDS_P2;PMS_P1;PMS_P2;Temp;Humidity;BMP_temperature;BMP_pressure;BME280_temperature;BME280_humidity;BME280_pressure;Samples;Min_cycle;Max_cycle;Signal;HPM_P1;HPM_P2
2024/01/25 00:02:16;;;;;;;7.27;2.93;;;9.30;6.60;;;;;;4954391;28;20554;-71
2024/01/25 00:04:41;;;;;;;6.93;2.97;;;9.30;6.80;;;;;;4954113;28;20225;-72
2024/01/25 00:07:10;;;;;;;8.87;3.13;;;9.30;6.40;;;;;;4954406;28;20178;-70
2024/01/25 00:09:35;;;;;;;5.00;2.00;;;9.30;6.50;;;;;;4952807;29;20186;-72
2024/01/25 00:12:01;;;;;;;6.17;2.33;;;9.20;7.20;;;;;;4952783;29;20496;-72
2024/01/25 00:14:27;;;;;;;8.20;2.63;;;9.20;7.40;;;;;;4952567;28;20202;-69
2024/01/25 00:16:52;;;;;;;8.23;3.33;;;9.20;7.10;;;;;;4952713;28;20185;-70
2024/01/25 00:19:18;;;;;;;11.93;3.90;;;9.30;7.10;;;;;;4954061;28;20186;-71
2024/01/25 00:21:44;;;;;;;18.83;4.17;;;9.30;7.20;;;;;;4952714;29;20664;-70
2024/01/25 00:24:12;;;;;;;7.17;2.20;;;9.20;7.50;;;;;;4953850;28;20201;-69
2024/01/25 00:26:37;;;;;;;6.50;1.80;;;9.30;7.70;;;;;;4953944;28;20495;-70
2024/01/25 00:29:03;;;;;;;4.10;2.10;;;9.30;7.20;;;;;;4953898;28;20422;-71
2024/01/25 00:31:29;;;;;;;7.83;3.00;;;9.20;8.00;;;;;;4953654;28;20206;-70
2024/01/25 00:33:56;;;;;;;14.10;3.10;;;9.20;8.50;;;;;;4953750;28;20422;-70
2024/01/25 00:36:22;;;;;;;7.10;2.57;;;9.20;7.80;;;;;;4953458;28;20418;-71
2024/01/25 00:38:49;;;;;;;10.10;2.40;;;9.20;8.70;;;;;;4953730;28;20410;-73
2024/01/25 00:41:18;;;;;;;7.43;2.93;;;9.20;8.50;;;;;;4953595;28;20410;-71
2024/01/25 00:43:45;;;;;;;6.13;2.00;;;9.20;8.80;;;;;;4953600;28;20449;-73
2024/01/25 00:46:10;;;;;;;8.00;2.77;;;9.30;8.10;;;;;;4953494;28;20441;-71
2024/01/25 00:48:36;;;;;;;6.07;3.10;;;9.20;8.30;;;;;;4953602;29;20433;-70
2024/01/25 00:51:06;;;;;;;12.23;2.73;;;9.20;8.00;;;;;;4953668;29;20642;-70
2024/01/25 00:53:32;;;;;;;9.43;2.27;;;9.10;8.20;;;;;;4953534;28;20697;-71
2024/01/25 00:55:58;;;;;;;7.97;2.40;;;9.10;8.10;;;;;;4953448;28;20465;-70
2024/01/25 00:58:24;;;;;;;3.20;1.60;;;9.10;8.20;;;;;;4951963;29;20467;-71
2024/01/25 01:00:50;;;;;;;6.63;2.77;;;9.10;8.20;;;;;;4953291;28;20420;-71
2024/01/25 01:03:20;;;;;;;9.70;2.57;;;9.10;8.00;;;;;;4953621;28;20415;-71
2024/01/25 01:05:46;;;;;;;5.93;2.50;;;9.10;7.70;;;;;;4986604;23;20876;-70
2024/01/25 01:08:12;;;;;;;7.40;2.90;;;9.20;7.80;;;;;;4974453;28;20409;-70
2024/01/25 01:10:38;;;;;;;5.07;2.63;;;9.20;7.90;;;;;;4975493;28;20400;-70
2024/01/25 01:13:03;;;;;;;6.47;2.30;;;9.10;8.20;;;;;;4978794;28;20463;-69
2024/01/25 01:15:29;;;;;;;6.10;2.40;;;9.10;7.90;;;;;;4980167;28;20204;-71
2024/01/25 01:17:55;;;;;;;7.00;2.50;;;9.10;8.40;;;;;;4974621;28;20177;-70
2024/01/25 01:20:20;;;;;;;8.20;2.17;;;9.10;7.70;;;;;;4973630;28;20177;-69
2024/01/25 01:22:46;;;;;;;8.23;1.83;;;9.20;7.20;;;;;;4973556;28;20182;-71
2024/01/25 01:25:11;;;;;;;6.93;2.67;;;9.30;6.80;;;;;;4973439;28;20201;-70
2024/01/25 01:27:37;;;;;;;7.43;1.67;;;9.20;6.30;;;;;;4973279;28;20585;-70
2024/01/25 01:30:03;;;;;;;7.03;2.17;;;9.20;6.40;;;;;;4973125;28;20188;-70
2024/01/25 01:32:29;;;;;;;6.53;2.30;;;9.30;6.30;;;;;;4965054;28;20221;-70
2024/01/25 01:34:54;;;;;;;7.03;3.00;;;9.40;5.60;;;;;;4953685;29;20449;-71
2024/01/25 01:37:20;;;;;;;8.03;1.93;;;9.40;5.60;;;;;;4952626;29;20181;-71
2024/01/25 01:39:46;;;;;;;14.77;2.70;;;9.40;5.20;;;;;;4953792;29;20253;-70
2024/01/25 01:42:13;;;;;;;4.77;1.70;;;9.50;4.30;;;;;;4953721;29;20185;-70
2024/01/25 01:44:39;;;;;;;8.50;2.20;;;9.50;4.70;;;;;;4953513;28;20206;-70
2024/01/25 01:47:05;;;;;;;6.03;2.30;;;9.50;4.60;;;;;;4953860;28;20422;-70
2024/01/25 01:49:31;;;;;;;8.50;2.63;;;9.60;4.10;;;;;;4953810;29;20860;-70
2024/01/25 01:51:56;;;;;;;5.97;2.47;;;9.60;4.00;;;;;;4953507;29;20212;-71
2024/01/25 01:54:22;;;;;;;8.00;2.90;;;9.50;4.00;;;;;;4953352;28;20185;-70
2024/01/25 01:56:48;;;;;;;3.90;2.03;;;9.50;4.00;;;;;;4952872;28;20548;-70
2024/01/25 01:59:16;;;;;;;11.63;1.87;;;9.50;4.20;;;;;;4953455;28;20425;-69
2024/01/25 02:01:41;;;;;;;3.50;1.93;;;9.60;4.00;;;;;;4953499;29;20417;-69
2024/01/25 02:04:07;;;;;;;2.90;1.37;;;9.60;3.90;;;;;;4953235;28;20448;-70
2024/01/25 02:06:33;;;;;;;8.77;2.60;;;9.60;3.70;;;;;;4952282;28;20579;-70
2024/01/25 02:08:59;;;;;;;6.73;2.60;;;9.60;4.00;;;;;;4952145;28;20715;-70
2024/01/25 02:11:25;;;;;;;8.00;3.00;;;9.60;4.20;;;;;;4953630;29;20546;-70
2024/01/25 02:13:51;;;;;;;6.00;1.97;;;9.50;4.80;;;;;;4953580;29;20266;-71
2024/01/25 02:16:17;;;;;;;6.43;2.20;;;9.50;5.60;;;;;;4953470;29;20477;-70
2024/01/25 02:18:43;;;;;;;5.03;2.20;;;9.40;6.00;;;;;;4953530;28;20185;-70
2024/01/25 02:21:08;;;;;;;8.60;2.10;;;9.30;6.80;;;;;;4953525;29;20421;-69
2024/01/25 02:23:34;;;;;;;8.10;2.97;;;9.20;7.60;;;;;;4953556;28;20201;-70
2024/01/25 02:26:00;;;;;;;5.30;1.90;;;9.10;8.30;;;;;;4953266;28;20218;-70
2024/01/25 02:28:25;;;;;;;5.10;2.27;;;9.10;8.60;;;;;;4953412;29;20685;-70
2024/01/25 02:30:51;;;;;;;10.23;2.77;;;9.10;8.80;;;;;;4953209;28;20240;-70
2024/01/25 02:33:16;;;;;;;6.73;2.90;;;9.20;9.10;;;;;;4953139;28;20220;-70
2024/01/25 02:35:42;;;;;;;4.93;2.07;;;9.20;9.30;;;;;;4953041;28;20201;-70
2024/01/25 02:38:08;;;;;;;10.33;2.70;;;9.10;9.50;;;;;;4953081;29;20257;-69
2024/01/25 02:40:33;;;;;;;4.90;2.13;;;9.20;9.90;;;;;;4953155;28;20209;-69
2024/01/25 02:42:59;;;;;;;8.33;2.43;;;9.20;9.90;;;;;;4953128;28;20187;-69
2024/01/25 02:45:24;;;;;;;6.90;2.47;;;9.20;9.30;;;;;;4952881;29;20206;-70
2024/01/25 02:47:50;;;;;;;4.57;1.80;;;9.20;9.00;;;;;;4953200;29;20525;-69
2024/01/25 02:50:16;;;;;;;6.07;1.87;;;9.20;9.10;;;;;;4953076;29;20186;-69
2024/01/25 02:52:41;;;;;;;8.77;1.80;;;9.20;9.00;;;;;;4953042;28;20198;-69
2024/01/25 02:55:07;;;;;;;5.97;2.40;;;9.10;9.80;;;;;;4952728;28;20216;-69
2024/01/25 02:57:33;;;;;;;6.40;1.97;;;9.20;9.90;;;;;;4953035;28;20179;-69
2024/01/25 02:59:59;;;;;;;6.60;2.20;;;9.20;9.90;;;;;;4953003;29;20611;-70
2024/01/25 03:02:25;;;;;;;6.50;2.03;;;9.20;10.90;;;;;;4953044;28;20178;-71
2024/01/25 03:04:50;;;;;;;5.57;2.20;;;9.20;10.90;;;;;;4952750;28;20708;-70
2024/01/25 03:07:16;;;;;;;5.17;1.77;;;9.20;11.50;;;;;;4953467;28;20421;-69
2024/01/25 03:09:41;;;;;;;8.23;1.87;;;9.20;12.50;;;;;;4956422;28;20650;-68
2024/01/25 03:12:07;;;;;;;4.60;2.30;;;9.20;13.40;;;;;;4955005;28;20300;-69
2024/01/25 03:14:33;;;;;;;9.77;2.80;;;9.20;15.00;;;;;;4956422;29;20296;-69
2024/01/25 03:16:58;;;;;;;6.63;1.70;;;9.10;16.90;;;;;;4956643;29;20186;-70
2024/01/25 03:19:26;;;;;;;9.47;2.47;;;9.10;17.90;;;;;;4956395;28;20192;-69
2024/01/25 03:21:52;;;;;;;15.30;2.77;;;9.00;18.40;;;;;;4956428;28;20190;-69
2024/01/25 03:24:18;;;;;;;7.00;2.27;;;9.00;18.50;;;;;;4956063;28;20839;-70
2024/01/25 03:26:44;;;;;;;4.47;2.03;;;9.00;19.30;;;;;;4956142;28;20188;-70
2024/01/25 03:29:09;;;;;;;9.10;2.77;;;9.10;18.80;;;;;;4956322;28;20265;-70
2024/01/25 03:31:36;;;;;;;10.23;2.73;;;9.00;19.30;;;;;;4956154;28;20212;-68
2024/01/25 03:34:02;;;;;;;7.43;2.97;;;8.90;20.80;;;;;;4956143;28;20174;-70
2024/01/25 03:36:28;;;;;;;3.40;1.93;;;9.00;20.30;;;;;;4955919;28;20445;-69
2024/01/25 03:38:53;;;;;;;5.43;2.40;;;8.90;21.20;;;;;;4954612;28;20500;-70
2024/01/25 03:41:19;;;;;;;6.80;2.60;;;9.00;20.90;;;;;;4955983;29;20261;-71
2024/01/25 03:43:45;;;;;;;4.60;2.40;;;9.00;21.20;;;;;;4954836;29;20272;-68
2024/01/25 03:46:12;;;;;;;12.33;2.77;;;8.90;22.60;;;;;;4956041;29;20529;-69
2024/01/25 03:48:38;;;;;;;7.23;2.27;;;8.90;23.00;;;;;;4954555;28;20186;-68
2024/01/25 03:51:03;;;;;;;10.20;2.80;;;8.90;24.20;;;;;;4955950;28;20488;-70
2024/01/25 03:53:29;;;;;;;5.40;2.43;;;8.90;25.00;;;;;;4955786;28;20556;-68
2024/01/25 03:55:55;;;;;;;7.53;1.73;;;8.80;25.40;;;;;;4955546;28;20225;-68
2024/01/25 03:58:20;;;;;;;7.03;2.13;;;8.80;27.80;;;;;;4955857;29;20606;-69
2024/01/25 04:00:46;;;;;;;6.73;2.17;;;8.70;28.80;;;;;;4955625;29;20654;-67
2024/01/25 04:03:12;;;;;;;8.00;3.00;;;8.70;29.30;;;;;;4955852;29;20190;-70
2024/01/25 04:05:39;;;;;;;6.53;2.30;;;8.70;30.60;;;;;;4955278;28;20225;-69
2024/01/25 04:08:05;;;;;;;7.37;3.83;;;8.80;30.90;;;;;;4955974;28;20536;-70
2024/01/25 04:10:31;;;;;;;7.00;2.50;;;8.80;30.90;;;;;;4955531;28;20500;-68
2024/01/25 04:13:00;;;;;;;11.23;2.87;;;8.80;30.90;;;;;;4955494;28;20469;-72
2024/01/25 04:15:26;;;;;;;4.83;1.87;;;8.80;30.90;;;;;;4955421;28;20520;-67
2024/01/25 04:17:53;;;;;;;5.83;2.00;;;8.80;31.50;;;;;;4953993;28;20417;-69
2024/01/25 04:20:21;;;;;;;6.53;2.03;;;8.70;33.20;;;;;;4954681;28;20428;-68
2024/01/25 04:22:47;;;;;;;7.43;1.97;;;8.60;35.90;;;;;;4955256;28;20449;-69
2024/01/25 04:25:15;;;;;;;4.00;1.90;;;8.70;34.80;;;;;;4955368;28;20476;-70
2024/01/25 04:27:41;;;;;;;9.07;1.90;;;8.70;34.10;;;;;;4954080;29;20196;-68
2024/01/25 04:30:08;;;;;;;8.53;2.00;;;8.70;33.70;;;;;;4955168;28;20414;-68
2024/01/25 04:32:34;;;;;;;1.83;0.90;;;8.60;34.90;;;;;;4955013;28;20599;-68
2024/01/25 04:34:59;;;;;;;10.43;2.97;;;8.50;35.90;;;;;;4954872;28;20907;-69
2024/01/25 04:37:25;;;;;;;7.67;2.70;;;8.50;37.20;;;;;;4955084;28;20422;-68
2024/01/25 04:39:50;;;;;;;3.80;1.77;;;8.60;36.70;;;;;;4954920;29;20194;-70
2024/01/25 04:42:16;;;;;;;4.27;1.87;;;8.60;35.90;;;;;;4954899;29;20189;-69
2024/01/25 04:44:42;;;;;;;6.60;2.20;;;8.60;35.90;;;;;;4954952;29;20208;-69
2024/01/25 04:47:08;;;;;;;3.50;1.70;;;8.70;36.00;;;;;;4954987;28;20177;-69
2024/01/25 04:49:34;;;;;;;9.23;2.10;;;8.70;35.40;;;;;;4953688;28;20457;-69
2024/01/25 04:52:00;;;;;;;11.30;3.23;;;8.80;34.30;;;;;;4954761;28;20496;-69
2024/01/25 04:54:25;;;;;;;5.03;1.83;;;8.70;33.20;;;;;;4954557;28;20217;-67
2024/01/25 04:56:51;;;;;;;8.90;2.40;;;8.60;34.40;;;;;;4953262;29;20429;-70
2024/01/25 04:59:16;;;;;;;8.33;2.20;;;8.60;36.00;;;;;;4954488;28;20224;-69
2024/01/25 05:01:42;;;;;;;7.10;1.93;;;8.60;37.10;;;;;;4954998;28;20237;-68
2024/01/25 05:04:08;;;;;;;3.40;1.70;;;8.60;36.00;;;;;;4954316;28;20311;-70
2024/01/25 05:06:33;;;;;;;5.60;2.03;;;8.60;34.40;;;;;;4954841;28;20194;-68
2024/01/25 05:08:59;;;;;;;3.30;1.67;;;8.60;35.70;;;;;;4953071;28;20201;-69
2024/01/25 05:11:24;;;;;;;2.73;1.23;;;8.60;34.70;;;;;;4953066;29;20712;-69
2024/01/25 05:13:50;;;;;;;5.10;2.10;;;8.60;34.00;;;;;;4953285;28;20280;-69
2024/01/25 05:16:16;;;;;;;6.47;1.93;;;8.50;33.90;;;;;;4954507;28;20292;-69
2024/01/25 05:18:41;;;;;;;2.67;1.30;;;8.50;33.20;;;;;;4954297;29;20273;-70
2024/01/25 05:21:07;;;;;;;5.30;2.10;;;8.40;32.00;;;;;;4954167;28;20181;-69
2024/01/25 05:23:32;;;;;;;2.77;1.73;;;8.30;30.50;;;;;;4954169;29;20181;-68
2024/01/25 05:25:58;;;;;;;4.13;1.60;;;8.30;30.60;;;;;;4952407;28;20213;-68
2024/01/25 05:28:24;;;;;;;3.43;1.10;;;8.20;30.40;;;;;;4954074;28;20539;-69
2024/01/25 05:30:50;;;;;;;4.70;2.00;;;8.30;29.20;;;;;;4952612;28;20192;-67
2024/01/25 05:33:15;;;;;;;4.97;1.63;;;8.20;28.10;;;;;;4953639;28;20468;-68
2024/01/25 05:35:41;;;;;;;10.30;2.20;;;8.20;24.90;;;;;;4953530;28;20728;-68
2024/01/25 05:38:06;;;;;;;7.20;2.13;;;8.20;22.80;;;;;;4952717;29;20188;-70
2024/01/25 05:40:32;;;;;;;9.17;2.43;;;8.20;21.00;;;;;;4952583;29;20184;-70
2024/01/25 05:42:59;;;;;;;3.27;2.10;;;8.20;18.70;;;;;;4953801;29;20261;-68
2024/01/25 05:45:25;;;;;;;6.57;1.87;;;8.30;18.30;;;;;;4953635;29;20205;-70
2024/01/25 05:47:50;;;;;;;3.53;1.47;;;8.20;17.90;;;;;;4953713;28;20485;-68
2024/01/25 05:50:19;;;;;;;2.83;1.20;;;8.30;18.90;;;;;;4953583;29;20420;-70
2024/01/25 05:52:47;;;;;;;5.83;1.47;;;8.20;17.40;;;;;;4952308;29;20227;-68
2024/01/25 05:55:14;;;;;;;4.57;1.60;;;8.20;17.90;;;;;;4953427;28;20474;-71
2024/01/25 05:57:42;;;;;;;4.97;2.07;;;8.20;18.00;;;;;;4952261;28;20941;-70
2024/01/25 06:00:12;;;;;;;2.97;1.23;;;8.10;16.20;;;;;;4953454;29;20940;-70
2024/01/25 06:02:37;;;;;;;3.37;1.20;;;8.10;14.60;;;;;;4953446;28;20425;-70
2024/01/25 06:05:03;;;;;;;5.47;1.43;;;8.10;13.60;;;;;;4953124;28;20462;-69
2024/01/25 06:07:29;;;;;;;9.20;2.00;;;8.10;11.70;;;;;;4953403;28;20185;-69
2024/01/25 06:09:54;;;;;;;6.07;1.50;;;8.20;11.30;;;;;;4953289;29;20188;-70
2024/01/25 06:12:20;;;;;;;9.00;1.77;;;8.20;10.90;;;;;;4953300;29;20201;-69
2024/01/25 06:14:46;;;;;;;5.73;1.90;;;8.20;10.40;;;;;;4953151;28;20196;-68
2024/01/25 06:17:11;;;;;;;6.50;1.60;;;8.20;10.40;;;;;;4953268;28;20433;-71
2024/01/25 06:19:37;;;;;;;6.90;1.40;;;8.20;10.40;;;;;;4953145;29;20186;-69
2024/01/25 06:22:03;;;;;;;6.20;1.53;;;8.10;10.00;;;;;;4952163;28;20220;-70
2024/01/25 06:24:28;;;;;;;7.37;1.63;;;8.10;10.50;;;;;;4952953;28;20209;-69
2024/01/25 06:26:54;;;;;;;4.80;1.90;;;8.00;10.00;;;;;;4953289;29;20420;-69
2024/01/25 06:29:20;;;;;;;6.43;1.83;;;8.00;10.50;;;;;;4953018;29;20188;-69
2024/01/25 06:31:45;;;;;;;3.47;1.10;;;8.00;11.20;;;;;;4952951;28;20238;-69
2024/01/25 06:34:11;;;;;;;5.70;1.90;;;7.90;11.50;;;;;;4952744;29;20190;-69
2024/01/25 06:36:37;;;;;;;5.20;1.60;;;7.80;13.40;;;;;;4953505;28;20679;-69
2024/01/25 06:39:04;;;;;;;3.80;1.20;;;7.70;15.30;;;;;;4953106;29;20460;-68
2024/01/25 06:41:30;;;;;;;4.03;1.53;;;7.60;17.20;;;;;;4953017;28;20188;-68
2024/01/25 06:43:55;;;;;;;5.40;1.17;;;7.50;18.50;;;;;;4956088;28;20428;-69
2024/01/25 06:46:21;;;;;;;5.83;1.40;;;7.40;20.00;;;;;;4955355;29;20598;-68
2024/01/25 06:48:47;;;;;;;6.53;2.00;;;7.40;20.50;;;;;;4956844;29;20548;-68
2024/01/25 06:51:14;;;;;;;4.63;2.10;;;7.30;21.00;;;;;;4956812;29;20702;-69
2024/01/25 06:53:39;;;;;;;6.63;1.77;;;7.30;21.60;;;;;;4956767;28;20687;-69
2024/01/25 06:56:05;;;;;;;5.97;1.70;;;7.20;21.50;;;;;;4955286;29;20454;-68
2024/01/25 06:58:31;;;;;;;5.93;1.47;;;7.20;21.50;;;;;;4957106;29;20193;-69
2024/01/25 07:00:56;;;;;;;5.00;1.80;;;7.20;20.90;;;;;;4956932;29;20181;-68
2024/01/25 07:03:22;;;;;;;4.13;1.60;;;7.20;19.90;;;;;;4956683;28;20189;-69
2024/01/25 07:05:47;;;;;;;5.50;1.90;;;7.20;19.30;;;;;;4956834;28;20227;-68
2024/01/25 07:08:13;;;;;;;4.87;1.37;;;7.30;19.40;;;;;;4956977;29;20175;-69
2024/01/25 07:10:40;;;;;;;2.70;1.27;;;7.30;19.60;;;;;;4956528;29;20220;-68
2024/01/25 07:13:06;;;;;;;3.40;1.20;;;7.40;18.70;;;;;;4956551;29;20284;-68
2024/01/25 07:15:32;;;;;;;6.40;1.90;;;7.40;18.90;;;;;;4956904;28;20455;-67
2024/01/25 07:17:57;;;;;;;4.03;2.20;;;7.40;19.00;;;;;;4956482;28;20504;-69
2024/01/25 07:20:23;;;;;;;3.60;1.27;;;7.40;17.40;;;;;;4956807;28;20433;-69
2024/01/25 07:22:48;;;;;;;5.87;1.73;;;7.40;17.70;;;;;;4956379;29;20201;-69
2024/01/25 07:25:14;;;;;;;3.93;1.67;;;7.40;17.40;;;;;;4956094;29;20204;-68
2024/01/25 07:27:43;;;;;;;5.00;1.83;;;7.30;17.40;;;;;;4956195;29;20631;-69
2024/01/25 07:30:09;;;;;;;4.70;1.73;;;7.30;18.00;;;;;;4956129;28;20247;-68
2024/01/25 07:32:36;;;;;;;3.27;1.87;;;7.20;19.70;;;;;;4954534;28;20544;-69
2024/01/25 07:35:01;;;;;;;5.27;2.20;;;7.20;19.80;;;;;;4966763;28;20534;-69
2024/01/25 07:37:26;;;;;;;4.27;1.70;;;7.10;19.90;;;;;;4971971;28;20872;-69
2024/01/25 07:39:52;;;;;;;4.00;1.30;;;7.10;21.10;;;;;;4971199;28;20267;-68
2024/01/25 07:42:18;;;;;;;3.97;2.00;;;7.10;20.80;;;;;;4970218;28;20282;-68
2024/01/25 07:44:44;;;;;;;3.83;1.53;;;7.00;21.40;;;;;;4971891;28;20204;-69
2024/01/25 07:47:09;;;;;;;4.03;1.90;;;7.00;22.40;;;;;;4969943;28;20847;-68
2024/01/25 07:49:35;;;;;;;4.80;2.13;;;6.90;22.50;;;;;;4971051;28;20203;-68
2024/01/25 07:52:00;;;;;;;6.43;1.80;;;6.90;23.50;;;;;;4971886;28;20216;-68
2024/01/25 07:54:26;;;;;;;2.80;1.40;;;7.00;23.50;;;;;;4969861;28;20678;-69
2024/01/25 07:56:51;;;;;;;5.07;1.33;;;6.90;23.70;;;;;;4971232;28;20185;-67
2024/01/25 07:59:17;;;;;;;3.70;1.17;;;6.90;23.60;;;;;;4971576;28;20187;-68
2024/01/25 08:01:43;;;;;;;5.83;2.10;;;6.90;23.20;;;;;;4971024;28;20191;-69
2024/01/25 08:04:08;;;;;;;4.63;1.87;;;6.80;23.70;;;;;;4970820;28;20182;-69
2024/01/25 08:06:34;;;;;;;2.87;1.63;;;6.90;23.30;;;;;;4969914;28;20316;-69
2024/01/25 08:08:59;;;;;;;5.67;1.37;;;6.90;22.60;;;;;;4970419;28;20293;-69
2024/01/25 08:11:25;;;;;;;2.90;1.33;;;6.90;22.50;;;;;;4971213;28;20210;-68
2024/01/25 08:13:51;;;;;;;3.30;1.20;;;6.90;22.60;;;;;;4970959;28;20212;-69
2024/01/25 08:16:19;;;;;;;5.73;1.57;;;6.90;22.20;;;;;;4968963;28;20962;-67
2024/01/25 08:18:45;;;;;;;4.33;1.47;;;6.90;21.30;;;;;;4971224;28;20191;-68
2024/01/25 08:21:12;;;;;;;6.03;1.90;;;7.00;21.50;;;;;;4970454;28;20975;-69
2024/01/25 08:23:38;;;;;;;4.77;2.57;;;7.00;21.40;;;;;;4970367;28;20472;-68
2024/01/25 08:26:04;;;;;;;6.03;1.87;;;7.00;20.50;;;;;;4965500;28;20493;-68
2024/01/25 08:28:29;;;;;;;4.73;1.80;;;7.10;20.40;;;;;;4962616;28;20681;-68
2024/01/25 08:30:55;;;;;;;4.40;1.47;;;7.20;19.70;;;;;;4972940;28;20209;-69
2024/01/25 08:33:20;;;;;;;4.30;2.30;;;7.30;19.40;;;;;;4964957;28;20237;-69
2024/01/25 08:35:46;;;;;;;2.47;1.20;;;7.30;18.80;;;;;;4970422;28;20203;-69
2024/01/25 08:38:12;;;;;;;6.43;1.80;;;7.40;18.30;;;;;;4962891;28;20192;-69
2024/01/25 08:40:37;;;;;;;8.40;1.67;;;7.40;17.40;;;;;;4969459;28;20273;-69
2024/01/25 08:43:04;;;;;;;4.67;1.87;;;7.50;17.50;;;;;;4961966;28;20554;-74
2024/01/25 08:45:30;;;;;;;4.50;1.70;;;7.50;16.60;;;;;;4971635;28;20212;-71
2024/01/25 08:47:56;;;;;;;7.97;1.63;;;7.50;16.10;;;;;;4971132;28;20431;-68
2024/01/25 08:50:22;;;;;;;5.90;1.87;;;7.50;16.70;;;;;;4970129;28;20291;-68
2024/01/25 08:52:48;;;;;;;9.43;2.50;;;7.60;16.70;;;;;;4962312;28;20653;-68
2024/01/25 08:55:14;;;;;;;6.20;1.43;;;7.60;16.10;;;;;;4970797;28;20199;-70
2024/01/25 08:57:40;;;;;;;4.60;1.73;;;7.60;16.40;;;;;;4970367;28;20932;-69
2024/01/25 09:00:10;;;;;;;8.87;1.90;;;7.70;15.60;;;;;;4968962;28;20499;-68
2024/01/25 09:02:36;;;;;;;3.30;1.87;;;7.70;15.20;;;;;;4969159;28;21005;-69
2024/01/25 09:05:03;;;;;;;9.07;2.23;;;7.80;14.20;;;;;;4968531;28;20503;-69
2024/01/25 09:07:29;;;;;;;5.87;2.40;;;7.80;15.10;;;;;;4969858;28;20436;-69
2024/01/25 09:09:54;;;;;;;6.50;2.40;;;7.80;13.40;;;;;;4956688;28;20452;-67
2024/01/25 09:12:20;;;;;;;4.60;1.63;;;7.90;13.50;;;;;;4949450;28;20223;-68
2024/01/25 09:14:45;;;;;;;5.50;1.57;;;7.90;13.60;;;;;;4954768;28;20262;-69
2024/01/25 09:17:11;;;;;;;6.40;1.60;;;8.00;13.50;;;;;;4970260;28;20250;-68
2024/01/25 09:19:36;;;;;;;8.07;2.40;;;8.10;13.60;;;;;;4969626;28;20251;-68
2024/01/25 09:22:04;;;;;;;3.90;2.20;;;8.10;12.80;;;;;;4969677;28;20231;-68
2024/01/25 09:24:35;;;;;;;5.90;1.93;;;8.20;12.60;;;;;;4969853;28;20211;-68
2024/01/25 09:27:02;;;;;;;6.93;2.10;;;8.20;12.10;;;;;;4970140;28;20432;-68
2024/01/25 09:29:28;;;;;;;7.87;2.07;;;8.20;12.40;;;;;;4969491;28;20425;-67
2024/01/25 09:31:54;;;;;;;9.43;1.43;;;8.30;12.10;;;;;;4967931;28;21004;-67
2024/01/25 09:34:19;;;;;;;4.73;1.57;;;8.30;11.20;;;;;;4969758;28;20433;-68
2024/01/25 09:36:45;;;;;;;3.87;1.63;;;8.40;11.10;;;;;;4969450;28;20218;-69
2024/01/25 09:39:11;;;;;;;9.30;2.60;;;8.50;11.20;;;;;;4969970;28;20192;-68
2024/01/25 09:41:36;;;;;;;12.50;2.47;;;8.50;9.50;;;;;;4972986;28;20601;-68
2024/01/25 09:44:03;;;;;;;11.47;2.10;;;8.50;9.50;;;;;;4973594;28;20209;-68
2024/01/25 09:46:30;;;;;;;6.73;1.97;;;8.60;9.50;;;;;;4972899;28;20204;-69
2024/01/25 09:48:55;;;;;;;4.33;1.50;;;8.60;9.50;;;;;;4973321;28;20916;-69
2024/01/25 09:51:23;;;;;;;5.07;2.40;;;8.70;9.60;;;;;;4973247;28;20564;-69
2024/01/25 09:53:49;;;;;;;3.20;1.33;;;8.80;9.60;;;;;;4967145;28;20284;-69
2024/01/25 09:56:19;;;;;;;7.20;1.77;;;8.90;8.90;;;;;;4969018;28;21079;-68
2024/01/25 09:58:48;;;;;;;3.50;1.40;;;9.00;8.50;;;;;;4969878;28;20442;-68
2024/01/25 10:01:15;;;;;;;8.10;1.67;;;9.20;7.60;;;;;;4969711;28;20412;-68
2024/01/25 10:03:47;;;;;;;3.20;1.60;;;9.40;7.70;;;;;;4969624;28;20535;-68
2024/01/25 10:06:14;;;;;;;4.20;1.70;;;9.60;5.70;;;;;;4965166;28;20530;-69
2024/01/25 10:08:39;;;;;;;5.43;1.50;;;9.90;5.40;;;;;;4972876;28;20421;-68
2024/01/25 10:11:06;;;;;;;7.80;1.70;;;10.10;2.90;;;;;;4972918;28;20439;-69
2024/01/25 10:13:31;;;;;;;4.97;2.13;;;10.20;1.50;;;;;;4973039;28;20209;-69
2024/01/25 10:15:58;;;;;;;3.77;1.40;;;10.40;2.10;;;;;;4972697;28;20444;-69
2024/01/25 10:18:25;;;;;;;6.47;1.80;;;10.50;1.30;;;;;;4972160;28;20178;-69
2024/01/25 10:20:57;;;;;;;5.93;1.67;;;10.70;1.20;;;;;;4972725;28;20426;-69
2024/01/25 10:23:23;;;;;;;9.40;2.47;;;10.90;1.00;;;;;;4972866;28;20785;-69
2024/01/25 10:25:48;;;;;;;5.80;1.70;;;11.20;1.00;;;;;;4972426;28;20435;-69
2024/01/25 10:28:14;;;;;;;3.90;1.57;;;11.20;1.00;;;;;;4972647;28;20457;-69
2024/01/25 10:30:39;;;;;;;5.50;2.40;;;10.90;1.00;;;;;;4972586;28;20245;-69
2024/01/25 10:33:05;;;;;;;12.60;2.43;;;11.00;1.00;;;;;;4972551;28;20715;-69
2024/01/25 10:35:32;;;;;;;7.10;2.50;;;11.00;1.00;;;;;;4972391;28;20243;-69
2024/01/25 10:37:57;;;;;;;5.50;2.43;;;11.00;1.00;;;;;;4972655;28;20432;-69
2024/01/25 10:40:24;;;;;;;5.80;2.43;;;11.00;1.00;;;;;;4971363;28;20560;-70
2024/01/25 10:42:50;;;;;;;12.70;2.50;;;10.90;1.00;;;;;;4972793;28;20625;-68
2024/01/25 10:45:15;;;;;;;4.33;1.60;;;10.80;1.00;;;;;;4972279;28;20442;-69
2024/01/25 10:47:41;;;;;;;9.00;2.80;;;10.60;1.00;;;;;;4973136;28;20420;-72
2024/01/25 10:50:11;;;;;;;4.77;3.17;;;10.50;1.00;;;;;;4972822;28;20531;-69
2024/01/25 10:52:38;;;;;;;3.93;2.43;;;10.40;1.00;;;;;;4971161;28;20712;-71
2024/01/25 10:55:05;;;;;;;5.57;2.60;;;10.30;1.00;;;;;;4972450;28;20436;-71
2024/01/25 10:57:37;;;;;;;6.13;1.93;;;10.60;1.00;;;;;;4972414;28;20425;-71
2024/01/25 11:00:07;;;;;;;6.60;2.13;;;10.80;1.00;;;;;;4972684;28;20471;-72
2024/01/25 11:02:34;;;;;;;6.67;1.97;;;10.90;1.00;;;;;;4967629;28;20429;-71
2024/01/25 11:05:01;;;;;;;5.70;1.70;;;11.00;1.00;;;;;;4968596;28;20596;-70
2024/01/25 11:07:26;;;;;;;11.97;2.73;;;11.10;1.00;;;;;;4968616;28;20480;-70
2024/01/25 11:09:53;;;;;;;6.77;2.20;;;11.20;1.00;;;;;;4969417;28;20461;-69
2024/01/25 11:12:19;;;;;;;4.00;2.00;;;11.10;1.00;;;;;;4968309;28;20214;-70
2024/01/25 11:14:45;;;;;;;5.47;1.87;;;11.00;1.00;;;;;;4968253;28;20456;-70
2024/01/25 11:17:23;;;;;;;18.63;3.10;;;11.10;1.00;;;;;;4969160;28;20428;-70
2024/01/25 11:19:50;;;;;;;4.07;2.10;;;11.20;1.00;;;;;;4969137;28;20296;-70
2024/01/25 11:22:16;;;;;;;5.47;2.53;;;11.20;1.00;;;;;;4968227;28;20428;-70
2024/01/25 11:24:45;;;;;;;5.80;2.70;;;11.20;1.00;;;;;;4968121;28;20446;-71
2024/01/25 11:27:11;;;;;;;7.50;2.30;;;10.90;1.00;;;;;;4969362;28;20512;-71
2024/01/25 11:29:38;;;;;;;9.17;3.20;;;11.00;1.00;;;;;;4971030;28;20425;-70
2024/01/25 11:32:05;;;;;;;5.40;2.07;;;10.90;1.00;;;;;;4971856;28;20503;-71
2024/01/25 11:34:31;;;;;;;14.20;2.50;;;10.70;1.00;;;;;;4972591;28;21151;-70
2024/01/25 11:36:57;;;;;;;7.33;2.37;;;10.60;1.00;;;;;;4972280;28;20506;-71
2024/01/25 11:39:23;;;;;;;9.67;2.70;;;10.40;1.00;;;;;;4971660;28;20798;-72
2024/01/25 11:41:51;;;;;;;5.10;2.30;;;10.30;1.00;;;;;;4974416;28;20452;-70
2024/01/25 11:44:16;;;;;;;9.93;2.77;;;10.50;1.00;;;;;;4974006;28;20187;-70
2024/01/25 11:46:42;;;;;;;9.87;2.97;;;10.70;1.00;;;;;;4975233;28;20431;-69
2024/01/25 11:49:08;;;;;;;4.07;2.10;;;11.10;1.00;;;;;;4975272;28;20185;-70
2024/01/25 11:51:34;;;;;;;6.63;2.20;;;11.40;1.00;;;;;;4975471;28;20554;-70
2024/01/25 11:54:00;;;;;;;8.90;3.13;;;11.70;1.00;;;;;;4975478;28;20838;-68
2024/01/25 11:56:33;;;;;;;8.47;3.20;;;11.90;1.00;;;;;;4975071;28;20664;-68
2024/01/25 11:58:59;;;;;;;7.40;2.00;;;12.00;1.00;;;;;;4975623;28;20909;-71
2024/01/25 12:01:25;;;;;;;7.83;3.23;;;12.00;1.00;;;;;;4975201;28;20421;-69
2024/01/25 12:03:51;;;;;;;4.97;2.97;;;12.00;1.00;;;;;;4975143;28;20431;-67
2024/01/25 12:06:17;;;;;;;4.90;2.07;;;11.70;1.00;;;;;;4974782;28;20994;-68
2024/01/25 12:08:44;;;;;;;6.53;2.83;;;11.50;1.00;;;;;;4975170;28;20836;-69
2024/01/25 12:11:10;;;;;;;6.37;2.70;;;11.50;1.00;;;;;;4974452;28;20942;-67
2024/01/25 12:13:40;;;;;;;7.10;2.67;;;11.50;1.00;;;;;;4974759;28;21103;-67
2024/01/25 12:16:06;;;;;;;4.30;2.43;;;11.60;1.00;;;;;;4974507;28;21015;-67
2024/01/25 12:18:32;;;;;;;9.77;1.83;;;11.50;1.00;;;;;;4974783;28;20777;-68
2024/01/25 12:21:03;;;;;;;6.60;2.53;;;11.80;1.00;;;;;;4974698;28;20426;-68
2024/01/25 12:23:40;;;;;;;3.93;2.10;;;12.10;1.00;;;;;;4974533;28;20417;-67
2024/01/25 12:26:07;;;;;;;5.20;2.60;;;12.40;1.00;;;;;;4974474;28;20447;-67
2024/01/25 12:28:33;;;;;;;4.53;2.33;;;12.70;1.00;;;;;;4973239;28;20451;-68
2024/01/25 12:31:06;;;;;;;6.03;3.03;;;12.70;1.00;;;;;;4974492;28;20417;-69
2024/01/25 12:33:33;;;;;;;7.47;3.13;;;12.60;1.00;;;;;;4974511;28;20872;-68
2024/01/25 12:35:58;;;;;;;5.60;2.60;;;12.50;1.00;;;;;;4974313;28;20524;-68
2024/01/25 12:38:25;;;;;;;3.77;2.00;;;12.30;1.00;;;;;;4974409;28;20810;-68
2024/01/25 12:40:52;;;;;;;6.40;2.40;;;11.90;1.00;;;;;;4973458;28;20260;-69
2024/01/25 12:43:18;;;;;;;8.63;2.20;;;11.50;1.00;;;;;;4974510;28;20780;-68
2024/01/25 12:45:44;;;;;;;4.03;2.43;;;11.40;1.00;;;;;;4973825;28;20851;-68
2024/01/25 12:48:10;;;;;;;4.63;2.37;;;11.20;1.00;;;;;;4974295;28;20430;-68
2024/01/25 12:50:36;;;;;;;5.50;1.87;;;11.00;1.00;;;;;;4974157;28;20895;-68
2024/01/25 12:53:02;;;;;;;3.97;2.10;;;10.80;1.00;;;;;;4974068;28;20211;-68
2024/01/25 12:55:29;;;;;;;4.50;2.27;;;10.90;1.00;;;;;;4973687;28;20480;-69